createdAt,value
2023-03-06T00:01:08.945Z,14.40
2023-03-06T00:03:11.442Z,15.02
2023-03-06T00:05:15.460Z,12.55
2023-03-06T00:07:17.675Z,14.75
2023-03-06T00:09:20.015Z,15.15
2023-03-06T00:11:22.705Z,16.95
2023-03-06T00:13:26.950Z,15.75
2023-03-06T00:15:30.158Z,15.90
2023-03-06T00:17:32.677Z,13.35
2023-03-06T00:19:34.999Z,12.75
2023-03-06T00:21:37.774Z,9.65
2023-03-06T00:23:41.474Z,12.65
2023-03-06T00:25:45.818Z,10.48
2023-03-06T00:27:49.543Z,12.00
2023-03-06T00:29:56.946Z,15.85
2023-03-06T00:34:02.894Z,12.07
2023-03-06T00:36:06.405Z,12.10
2023-03-06T00:38:12.785Z,13.25
2023-03-06T00:40:19.263Z,11.27
2023-03-06T00:42:22.120Z,11.55
2023-03-06T00:44:25.100Z,12.68
2023-03-06T00:46:27.328Z,12.40
2023-03-06T00:48:30.326Z,12.20
2023-03-06T00:50:32.999Z,11.95
2023-03-06T00:52:35.884Z,12.57
2023-03-06T00:54:38.560Z,13.55
2023-03-06T00:56:40.808Z,11.88
2023-03-06T00:58:43.263Z,9.43
2023-03-06T01:00:46.074Z,13.43
2023-03-06T01:02:48.525Z,9.73
2023-03-06T01:04:50.808Z,12.82
2023-03-06T01:06:53.398Z,11.52
2023-03-06T01:08:55.720Z,10.15
2023-03-06T01:11:00.963Z,10.30
2023-03-06T01:13:03.262Z,10.70
2023-03-06T01:15:06.301Z,10.45
2023-03-06T01:17:10.671Z,9.18
2023-03-06T01:19:13.016Z,13.27
2023-03-06T01:21:15.526Z,13.65
2023-03-06T01:23:17.886Z,12.60
2023-03-06T01:25:21.360Z,10.15
2023-03-06T01:27:26.334Z,8.30
2023-03-06T01:29:29.851Z,10.52
2023-03-06T01:31:32.769Z,10.00
2023-03-06T01:33:36.300Z,13.52
2023-03-06T01:35:39.667Z,10.18
2023-03-06T01:37:42.485Z,8.77
2023-03-06T01:39:45.033Z,11.48
2023-03-06T01:41:47.262Z,12.63
2023-03-06T01:43:50.025Z,13.13
2023-03-06T01:45:53.103Z,8.07
2023-03-06T01:47:55.661Z,8.70
2023-03-06T01:50:01.265Z,8.88
2023-03-06T01:52:09.174Z,11.25
2023-03-06T01:54:16.255Z,9.60
2023-03-06T01:56:19.332Z,10.52
2023-03-06T01:58:23.092Z,8.48
2023-03-06T02:00:28.685Z,8.32
2023-03-06T02:02:31.576Z,9.07
2023-03-06T02:04:34.788Z,8.88
2023-03-06T02:06:40.276Z,8.70
2023-03-06T02:08:42.749Z,7.43
2023-03-06T02:11:16.325Z,8.93
2023-03-06T02:13:18.928Z,7.93
2023-03-06T02:15:25.208Z,7.03
2023-03-06T02:17:30.678Z,8.85
2023-03-06T02:19:54.362Z,7.18
2023-03-06T02:21:56.793Z,10.57
2023-03-06T02:24:24.185Z,9.50
2023-03-06T02:26:28.350Z,7.85
2023-03-06T02:28:31.037Z,7.28
2023-03-06T02:30:35.797Z,7.60
2023-03-06T02:32:38.269Z,9.60
2023-03-06T02:34:40.498Z,8.25
2023-03-06T02:36:47.732Z,9.30
2023-03-06T02:38:51.767Z,11.27
2023-03-06T02:40:58.355Z,10.45
2023-03-06T02:43:05.921Z,6.50
2023-03-06T02:45:12.895Z,7.82
2023-03-06T02:47:16.269Z,10.52
2023-03-06T02:49:18.527Z,15.75
2023-03-06T02:51:21.081Z,13.80
2023-03-06T02:53:24.115Z,13.13
2023-03-06T02:55:27.116Z,11.43
2023-03-06T02:57:31.038Z,9.77
2023-03-06T02:59:35.490Z,12.70
2023-03-06T03:01:39.716Z,7.40
2023-03-06T03:03:42.433Z,9.75
2023-03-06T03:05:45.704Z,10.68
2023-03-06T03:07:58.189Z,12.63
2023-03-06T03:10:00.713Z,10.90
2023-03-06T03:12:08.091Z,9.77
2023-03-06T03:14:10.443Z,14.88
2023-03-06T03:16:15.890Z,12.60
2023-03-06T03:18:18.402Z,20.15
2023-03-06T03:20:22.509Z,14.60
2023-03-06T03:22:25.465Z,16.10
2023-03-06T03:24:27.770Z,15.90
2023-03-06T03:26:30.842Z,15.60
2023-03-06T03:28:42.543Z,17.38
2023-03-06T03:30:47.090Z,20.38
2023-03-06T03:32:49.439Z,21.88
2023-03-06T03:34:52.528Z,18.27
2023-03-06T03:36:55.334Z,18.58
2023-03-06T03:38:57.823Z,18.30
2023-03-06T03:41:04.397Z,19.23
2023-03-06T03:43:07.766Z,18.42
2023-03-06T03:45:11.401Z,17.20
2023-03-06T03:47:14.337Z,20.63
2023-03-06T03:49:17.204Z,74.03
2023-03-06T03:51:20.159Z,101.72
2023-03-06T03:53:26.949Z,96.68
2023-03-06T03:55:29.648Z,46.88
2023-03-06T03:57:32.602Z,46.22
2023-03-06T03:59:36.084Z,26.40
2023-03-06T04:02:05.374Z,20.20
2023-03-06T04:04:13.194Z,18.70
2023-03-06T04:06:17.594Z,14.48
2023-03-06T04:08:21.996Z,12.27
2023-03-06T04:10:25.444Z,17.35
2023-03-06T04:12:28.335Z,18.10
2023-03-06T04:14:31.576Z,21.10
2023-03-06T04:16:34.770Z,18.40
2023-03-06T04:18:37.277Z,20.23
2023-03-06T04:20:41.261Z,16.65
2023-03-06T04:22:43.707Z,17.25
2023-03-06T04:24:50.026Z,17.70
2023-03-06T04:26:53.686Z,19.40
2023-03-06T04:28:56.963Z,18.10
2023-03-06T04:31:00.216Z,16.00
2023-03-06T04:33:03.857Z,14.27
2023-03-06T04:35:06.609Z,14.73
2023-03-06T04:37:25.103Z,18.95
2023-03-06T04:39:28.589Z,17.05
2023-03-06T04:41:31.639Z,18.25
2023-03-06T04:43:34.264Z,29.30
2023-03-06T04:45:38.519Z,39.63
2023-03-06T04:47:41.580Z,33.72
2023-03-06T04:49:44.225Z,41.85
2023-03-06T04:51:46.430Z,22.27
2023-03-06T04:53:48.626Z,25.58
2023-03-06T04:55:51.021Z,19.15
2023-03-06T04:57:54.143Z,22.58
2023-03-06T04:59:56.441Z,23.13
2023-03-06T05:01:58.895Z,18.63
2023-03-06T05:04:01.568Z,17.83
2023-03-06T05:06:04.530Z,21.98
2023-03-06T05:08:07.606Z,20.80
2023-03-06T05:10:16.266Z,21.42
2023-03-06T05:12:18.623Z,19.85
2023-03-06T05:14:21.092Z,24.70
2023-03-06T05:16:23.852Z,25.30
2023-03-06T05:18:26.263Z,20.25
2023-03-06T05:20:32.554Z,20.00
2023-03-06T05:22:35.152Z,25.25
2023-03-06T05:24:37.882Z,30.02
2023-03-06T05:26:40.360Z,29.48
2023-03-06T05:28:42.748Z,28.60
2023-03-06T05:30:45.303Z,33.53
2023-03-06T05:32:48.437Z,32.85
2023-03-06T05:34:51.140Z,30.90
2023-03-06T05:36:53.641Z,29.92
2023-03-06T05:38:56.206Z,29.50
2023-03-06T05:40:58.691Z,25.60
2023-03-06T05:43:01.263Z,22.75
2023-03-06T05:45:04.742Z,25.75
2023-03-06T05:47:08.936Z,24.58
2023-03-06T05:49:12.150Z,23.55
2023-03-06T05:51:14.441Z,21.10
2023-03-06T05:53:16.872Z,19.45
2023-03-06T05:55:21.305Z,20.92
2023-03-06T05:57:24.885Z,22.48
2023-03-06T05:59:28.730Z,23.90
2023-03-06T06:01:31.485Z,17.33
2023-03-06T06:03:33.913Z,27.13
2023-03-06T06:05:40.243Z,27.42
2023-03-06T06:07:42.785Z,25.08
2023-03-06T06:09:46.511Z,24.75
2023-03-06T06:12:00.816Z,29.45
2023-03-06T06:14:03.230Z,23.88
2023-03-06T06:16:12.052Z,27.48
2023-03-06T06:18:14.919Z,24.92
2023-03-06T06:20:17.728Z,26.83
2023-03-06T06:22:20.131Z,25.15
2023-03-06T06:24:25.357Z,30.90
2023-03-06T06:26:28.072Z,24.90
2023-03-06T06:28:31.839Z,30.90
2023-03-06T06:30:34.772Z,29.02
2023-03-06T06:32:38.368Z,27.17
2023-03-06T06:34:41.154Z,23.08
2023-03-06T06:36:43.793Z,24.05
2023-03-06T06:38:47.061Z,20.77
2023-03-06T06:41:19.344Z,21.67
2023-03-06T06:43:12.599Z,18.25
2023-03-06T06:45:15.095Z,20.52
2023-03-06T06:47:22.898Z,27.55
2023-03-06T06:49:26.255Z,25.60
2023-03-06T06:51:32.646Z,28.02
2023-03-06T06:53:34.791Z,27.73
2023-03-06T06:55:37.976Z,25.13
2023-03-06T06:57:43.048Z,32.42
2023-03-06T06:59:45.857Z,33.05
2023-03-06T07:01:48.736Z,38.35
2023-03-06T07:03:51.781Z,35.53
2023-03-06T07:05:56.580Z,31.73
2023-03-06T07:07:59.162Z,31.10
2023-03-06T07:10:01.857Z,32.25
2023-03-06T07:12:04.287Z,28.30
2023-03-06T07:14:06.979Z,30.88
2023-03-06T07:16:09.970Z,25.35
2023-03-06T07:18:12.464Z,27.52
2023-03-06T07:20:16.347Z,27.05
2023-03-06T07:22:19.093Z,33.80
2023-03-06T07:24:21.533Z,29.10
2023-03-06T07:26:24.951Z,31.23
2023-03-06T07:28:27.411Z,34.40
2023-03-06T07:30:29.798Z,22.48
2023-03-06T07:32:32.136Z,18.38
2023-03-06T07:34:34.841Z,19.45
2023-03-06T07:36:37.327Z,19.42
2023-03-06T07:38:39.710Z,17.00
2023-03-06T07:40:42.544Z,16.33
2023-03-06T07:42:44.892Z,20.52
2023-03-06T07:44:51.335Z,17.95
2023-03-06T07:46:54.033Z,17.83
2023-03-06T07:48:58.928Z,15.55
2023-03-06T07:51:05.126Z,19.02
2023-03-06T07:53:08.163Z,17.40
2023-03-06T07:55:11.790Z,18.42
2023-03-06T07:57:14.654Z,16.63
2023-03-06T07:59:17.085Z,16.77
2023-03-06T08:01:24.506Z,17.02
2023-03-06T08:03:27.282Z,17.70
2023-03-06T08:05:30.259Z,15.70
2023-03-06T08:07:32.966Z,16.05
2023-03-06T08:09:36.344Z,17.08
2023-03-06T08:11:38.821Z,13.73
2023-03-06T08:13:41.960Z,16.17
2023-03-06T08:15:49.541Z,16.70
2023-03-06T08:17:53.226Z,14.85
2023-03-06T08:19:55.864Z,16.52
2023-03-06T08:21:58.161Z,14.50
2023-03-06T08:24:00.648Z,18.30
2023-03-06T08:26:06.350Z,14.98
2023-03-06T08:28:08.770Z,15.23
2023-03-06T08:30:12.778Z,14.00
2023-03-06T08:32:15.504Z,16.25
2023-03-06T08:34:20.950Z,14.70
2023-03-06T08:36:24.363Z,12.73
2023-03-06T08:38:26.830Z,13.93
2023-03-06T08:40:30.890Z,13.35
2023-03-06T08:42:33.322Z,18.65
2023-03-06T08:44:36.069Z,15.02
2023-03-06T08:46:38.696Z,11.52
2023-03-06T08:48:42.018Z,12.52
2023-03-06T08:50:44.840Z,11.60
2023-03-06T08:52:47.245Z,14.45
2023-03-06T08:54:49.977Z,13.45
2023-03-06T08:56:54.408Z,12.15
2023-03-06T08:58:58.972Z,14.15
2023-03-06T09:01:01.445Z,12.90
2023-03-06T09:03:05.026Z,14.20
2023-03-06T09:05:09.214Z,13.18
2023-03-06T09:07:11.566Z,11.77
2023-03-06T09:09:14.624Z,15.23
2023-03-06T09:11:17.088Z,14.45
2023-03-06T09:13:19.997Z,15.45
2023-03-06T09:15:23.985Z,18.38
2023-03-06T09:17:26.519Z,15.45
2023-03-06T09:19:29.727Z,13.10
2023-03-06T09:21:32.440Z,13.85
2023-03-06T09:23:36.100Z,14.50
2023-03-06T09:25:38.681Z,17.70
2023-03-06T09:27:41.616Z,15.48
2023-03-06T09:29:44.093Z,14.80
2023-03-06T09:31:46.506Z,13.85
2023-03-06T09:33:48.833Z,13.38
2023-03-06T09:35:57.536Z,16.27
2023-03-06T09:38:00.116Z,11.55
2023-03-06T09:40:05.286Z,13.65
2023-03-06T09:42:09.264Z,12.73
2023-03-06T09:44:16.889Z,14.50
2023-03-06T09:46:33.341Z,12.82
2023-03-06T09:48:59.161Z,10.02
2023-03-06T09:51:39.751Z,12.80
2023-03-06T09:54:15.339Z,11.80
2023-03-06T09:56:23.732Z,13.02
2023-03-06T09:58:30.590Z,10.07
2023-03-06T10:01:04.937Z,9.73
2023-03-06T10:03:36.609Z,10.00
2023-03-06T10:05:44.317Z,8.30
2023-03-06T10:07:53.388Z,9.55
2023-03-06T10:10:03.334Z,10.98
2023-03-06T10:12:19.434Z,10.73
2023-03-06T10:14:46.511Z,9.82
2023-03-06T10:16:51.138Z,13.15
2023-03-06T10:18:56.880Z,8.82
2023-03-06T10:21:18.774Z,10.43
2023-03-06T10:23:45.857Z,10.90
2023-03-06T10:26:02.340Z,7.07
2023-03-06T10:28:18.548Z,8.52
2023-03-06T10:30:58.529Z,8.45
2023-03-06T10:33:27.152Z,8.68
2023-03-06T10:35:40.761Z,7.50
2023-03-06T10:37:43.577Z,8.10
2023-03-06T10:39:46.867Z,7.43
2023-03-06T10:41:50.391Z,7.28
2023-03-06T10:44:02.372Z,8.63
2023-03-06T10:46:06.646Z,8.77
2023-03-06T10:48:12.385Z,7.85
2023-03-06T10:50:25.483Z,8.75
2023-03-06T10:54:40.554Z,7.80
2023-03-06T10:56:44.574Z,8.35
2023-03-06T10:58:46.978Z,10.50
2023-03-06T11:01:19.874Z,13.10
2023-03-06T11:03:25.169Z,9.57
2023-03-06T11:05:27.957Z,11.00
2023-03-06T11:07:32.980Z,9.68
2023-03-06T11:09:36.693Z,9.70
2023-03-06T11:11:39.071Z,9.27
2023-03-06T11:13:44.586Z,8.32
2023-03-06T11:16:07.632Z,10.30
2023-03-06T11:18:09.972Z,8.00
2023-03-06T11:20:20.379Z,11.07
2023-03-06T11:22:23.212Z,9.57
2023-03-06T11:24:26.122Z,8.40
2023-03-06T11:26:35.013Z,11.02
2023-03-06T11:29:02.041Z,10.18
2023-03-06T11:31:09.018Z,10.35
2023-03-06T11:33:28.886Z,10.30
2023-03-06T11:35:38.816Z,8.73
2023-03-06T11:37:57.952Z,6.68
2023-03-06T11:40:36.257Z,7.72
2023-03-06T11:42:50.192Z,9.07
2023-03-06T11:45:03.045Z,8.90
2023-03-06T11:47:20.109Z,7.05
2023-03-06T11:49:33.489Z,10.30
2023-03-06T11:51:42.923Z,7.90
2023-03-06T11:53:45.650Z,6.68
2023-03-06T11:56:04.008Z,10.13
2023-03-06T11:58:12.808Z,8.18
2023-03-06T12:00:27.800Z,7.60
2023-03-06T12:02:43.244Z,6.00
2023-03-06T12:05:05.361Z,7.25
2023-03-06T12:07:37.566Z,7.40
2023-03-06T12:09:49.785Z,6.85
2023-03-06T12:12:29.952Z,6.97
2023-03-06T12:14:43.644Z,5.13
2023-03-06T12:17:28.977Z,5.82
2023-03-06T12:20:00.563Z,6.50
2023-03-06T12:22:24.904Z,6.47
2023-03-06T12:25:17.806Z,5.60
2023-03-06T12:27:47.871Z,8.25
2023-03-06T12:30:28.481Z,8.80
2023-03-06T12:32:52.712Z,7.40
2023-03-06T12:35:21.460Z,5.65
2023-03-06T12:37:56.204Z,9.80
2023-03-06T12:40:19.742Z,6.70
2023-03-06T12:42:41.179Z,7.97
2023-03-06T12:44:49.640Z,6.35
2023-03-06T12:47:03.072Z,8.02
2023-03-06T12:49:32.895Z,6.60
2023-03-06T12:51:36.469Z,6.32
2023-03-06T12:53:41.314Z,6.75
2023-03-06T12:55:49.484Z,6.55
2023-03-06T12:57:53.123Z,9.88
2023-03-06T12:59:56.136Z,7.07
2023-03-06T13:02:09.036Z,6.97
2023-03-06T13:04:52.973Z,8.77
2023-03-06T13:07:15.797Z,6.78
2023-03-06T13:09:26.703Z,7.70
2023-03-06T13:11:50.332Z,8.85
2023-03-06T13:13:53.994Z,7.50
2023-03-06T13:16:02.453Z,8.85
2023-03-06T13:18:22.962Z,8.52
2023-03-06T13:20:39.576Z,8.02
2023-03-06T13:22:47.157Z,7.05
2023-03-06T13:25:30.702Z,8.18
2023-03-06T13:27:54.963Z,6.35
2023-03-06T13:30:06.475Z,6.68
2023-03-06T13:32:14.844Z,8.15
2023-03-06T13:34:39.150Z,6.35
2023-03-06T13:36:41.944Z,6.13
2023-03-06T13:38:44.364Z,6.70
2023-03-06T13:40:47.018Z,9.25
2023-03-06T13:42:52.358Z,7.78
2023-03-06T13:44:56.831Z,7.78
2023-03-06T13:47:02.898Z,7.15
2023-03-06T13:49:08.165Z,8.93
2023-03-06T13:51:25.705Z,7.80
2023-03-06T13:53:46.930Z,13.18
2023-03-06T13:56:21.333Z,14.23
2023-03-06T13:58:32.534Z,9.65
2023-03-06T14:01:13.784Z,8.20
2023-03-06T14:03:35.064Z,9.70
2023-03-06T14:05:47.369Z,10.13
2023-03-06T14:08:24.418Z,10.38
2023-03-06T14:10:27.105Z,8.50
2023-03-06T14:12:36.071Z,11.80
2023-03-06T14:14:43.464Z,11.00
2023-03-06T14:16:51.001Z,11.15
2023-03-06T14:18:59.403Z,8.93
2023-03-06T14:21:05.054Z,9.23
2023-03-06T14:23:42.791Z,8.10
2023-03-06T14:25:46.763Z,8.93
2023-03-06T14:27:53.555Z,10.15
2023-03-06T14:30:09.118Z,8.20
2023-03-06T14:32:12.544Z,8.98
2023-03-06T14:34:17.777Z,10.85
2023-03-06T14:36:23.955Z,9.98
2023-03-06T14:38:28.792Z,11.00
2023-03-06T14:40:36.580Z,10.70
2023-03-06T14:42:39.109Z,14.57
2023-03-06T14:44:41.948Z,10.75
2023-03-06T14:46:46.979Z,10.80
2023-03-06T14:48:50.290Z,9.05
2023-03-06T14:50:56.474Z,10.40
2023-03-06T14:53:04.552Z,9.30
2023-03-06T14:55:16.264Z,10.60
2023-03-06T14:57:22.347Z,11.60
2023-03-06T14:59:28.871Z,11.05
2023-03-06T15:01:41.341Z,10.85
2023-03-06T15:03:48.937Z,8.35
2023-03-06T15:05:52.530Z,10.95
2023-03-06T15:08:01.426Z,12.27
2023-03-06T15:10:06.844Z,12.98
2023-03-06T15:12:21.698Z,13.15
2023-03-06T15:14:33.994Z,10.88
2023-03-06T15:16:36.585Z,12.32
2023-03-06T15:19:05.159Z,11.65
2023-03-06T15:21:10.650Z,10.07
2023-03-06T15:23:34.733Z,11.80
2023-03-06T15:25:37.378Z,13.32
2023-03-06T15:27:39.921Z,12.02
2023-03-06T15:29:42.371Z,13.63
2023-03-06T15:31:46.476Z,15.27
2023-03-06T15:34:06.889Z,13.80
2023-03-06T15:36:31.747Z,12.07
2023-03-06T15:38:42.221Z,12.50
2023-03-06T15:40:58.663Z,11.63
2023-03-06T15:43:01.868Z,9.90
2023-03-06T15:45:16.347Z,10.57
2023-03-06T15:47:19.447Z,12.25
2023-03-06T15:49:22.330Z,13.27
2023-03-06T15:51:25.860Z,11.48
2023-03-06T15:53:28.844Z,13.10
2023-03-06T15:55:32.916Z,13.05
2023-03-06T15:57:35.387Z,11.63
2023-03-06T15:59:43.604Z,11.25
2023-03-06T16:01:46.118Z,12.75
2023-03-06T16:03:49.836Z,11.73
2023-03-06T16:05:52.380Z,11.95
2023-03-06T16:07:55.789Z,12.98
2023-03-06T16:09:58.156Z,11.02
2023-03-06T16:12:00.759Z,10.00
2023-03-06T16:14:04.224Z,10.82
2023-03-06T16:16:07.660Z,14.80
2023-03-06T16:18:12.517Z,10.93
2023-03-06T16:20:20.444Z,11.95
2023-03-06T16:22:22.822Z,13.57
2023-03-06T16:24:27.021Z,14.30
2023-03-06T16:26:34.994Z,13.05
2023-03-06T16:28:40.930Z,15.55
2023-03-06T16:30:44.771Z,16.17
2023-03-06T16:32:47.684Z,11.07
2023-03-06T16:34:50.169Z,10.45
2023-03-06T16:36:53.011Z,14.20
2023-03-06T16:38:55.524Z,12.27
2023-03-06T16:40:57.894Z,9.38
2023-03-06T16:43:00.656Z,11.45
2023-03-06T16:45:03.486Z,9.68
2023-03-06T16:47:05.921Z,9.27
2023-03-06T16:49:14.060Z,11.10
2023-03-06T16:51:19.874Z,9.27
2023-03-06T16:53:22.336Z,9.02
2023-03-06T16:55:27.166Z,9.52
2023-03-06T16:57:35.806Z,10.30
2023-03-06T16:59:38.294Z,10.98
2023-03-06T17:01:43.517Z,7.90
2023-03-06T17:03:46.898Z,8.77
2023-03-06T17:05:49.375Z,9.68
2023-03-06T17:07:52.233Z,10.48
2023-03-06T17:09:54.812Z,9.73
2023-03-06T17:11:57.245Z,10.85
2023-03-06T17:13:59.614Z,8.88
2023-03-06T17:16:02.444Z,8.73
2023-03-06T17:18:05.505Z,11.18
2023-03-06T17:20:09.215Z,7.97
2023-03-06T17:22:11.733Z,10.15
2023-03-06T17:24:14.227Z,7.13
2023-03-06T17:26:19.320Z,8.48
2023-03-06T17:28:22.164Z,8.60
2023-03-06T17:30:24.741Z,6.50
2023-03-06T17:32:28.822Z,7.57
2023-03-06T17:34:31.253Z,7.43
2023-03-06T17:36:33.794Z,7.93
2023-03-06T17:38:37.200Z,7.65
2023-03-06T17:40:39.496Z,8.20
2023-03-06T17:42:42.505Z,8.05
2023-03-06T17:44:45.149Z,7.85
2023-03-06T17:46:47.782Z,8.80
2023-03-06T17:48:50.282Z,8.50
2023-03-06T17:50:56.777Z,7.05
2023-03-06T17:52:59.451Z,8.02
2023-03-06T17:55:02.064Z,7.65
2023-03-06T17:57:06.005Z,16.45
2023-03-06T17:59:09.172Z,14.40
2023-03-06T18:01:17.865Z,18.95
2023-03-06T18:03:20.457Z,17.48
2023-03-06T18:05:23.154Z,17.50
2023-03-06T18:07:25.768Z,11.82
2023-03-06T18:09:28.355Z,9.75
2023-03-06T18:11:32.058Z,14.27
2023-03-06T18:13:36.677Z,10.45
2023-03-06T18:15:41.148Z,11.80
2023-03-06T18:17:43.661Z,12.57
2023-03-06T18:19:46.318Z,13.82
2023-03-06T18:21:48.887Z,11.30
2023-03-06T18:23:51.834Z,11.77
2023-03-06T18:26:08.288Z,13.45
2023-03-06T18:28:13.757Z,18.13
2023-03-06T18:30:16.773Z,22.85
2023-03-06T18:32:19.416Z,16.08
2023-03-06T18:34:22.406Z,12.93
2023-03-06T18:36:28.155Z,22.23
2023-03-06T18:38:31.326Z,26.80
2023-03-06T18:40:34.346Z,22.45
2023-03-06T18:42:37.194Z,19.20
2023-03-06T18:44:39.704Z,22.17
2023-03-06T18:46:42.753Z,29.98
2023-03-06T18:48:45.383Z,27.73
2023-03-06T18:50:48.182Z,28.70
2023-03-06T18:52:50.802Z,23.73
2023-03-06T18:54:53.887Z,17.80
2023-03-06T18:56:56.547Z,23.92
2023-03-06T18:59:07.674Z,20.08
2023-03-06T19:01:10.711Z,22.08
2023-03-06T19:03:13.610Z,21.40
2023-03-06T19:05:17.755Z,18.02
2023-03-06T19:07:20.224Z,20.50
2023-03-06T19:09:22.688Z,24.33
2023-03-06T19:11:27.326Z,27.30
2023-03-06T19:13:30.858Z,20.15
2023-03-06T19:15:34.210Z,23.40
2023-03-06T19:17:38.011Z,27.15
2023-03-06T19:19:40.831Z,25.10
2023-03-06T19:21:43.448Z,24.58
2023-03-06T19:23:46.789Z,28.05
2023-03-06T19:25:56.909Z,25.98
2023-03-06T19:28:00.337Z,22.40
2023-03-06T19:30:03.071Z,26.42
2023-03-06T19:32:06.114Z,23.45
2023-03-06T19:34:08.858Z,26.13
2023-03-06T19:36:14.388Z,23.40
2023-03-06T19:38:16.994Z,24.15
2023-03-06T19:40:20.410Z,22.27
2023-03-06T19:42:23.067Z,22.75
2023-03-06T19:44:25.787Z,20.50
2023-03-06T19:46:28.522Z,25.42
2023-03-06T19:48:30.912Z,19.38
2023-03-06T19:50:34.797Z,21.73
2023-03-06T19:52:39.577Z,19.95
2023-03-06T19:54:41.891Z,17.13
2023-03-06T19:56:44.325Z,17.42
2023-03-06T19:58:47.819Z,19.17
2023-03-06T20:00:50.461Z,16.00
2023-03-06T20:02:53.446Z,16.58
2023-03-06T20:04:55.905Z,18.40
2023-03-06T20:07:00.044Z,17.55
2023-03-06T20:09:05.686Z,24.80
2023-03-06T20:11:22.850Z,21.30
2023-03-06T20:13:25.313Z,19.02
2023-03-06T20:15:28.430Z,18.88
2023-03-06T20:17:34.080Z,23.45
2023-03-06T20:19:37.152Z,18.45
2023-03-06T20:21:40.002Z,17.08
2023-03-06T20:23:43.700Z,23.67
2023-03-06T20:25:46.254Z,20.88
2023-03-06T20:27:49.173Z,19.27
2023-03-06T20:29:51.809Z,17.15
2023-03-06T20:31:55.849Z,19.10
2023-03-06T20:33:59.828Z,18.92
2023-03-06T20:36:02.869Z,15.93
2023-03-06T20:38:05.428Z,15.45
2023-03-06T20:40:08.947Z,14.43
2023-03-06T20:42:11.939Z,15.30
2023-03-06T20:44:18.344Z,14.43
2023-03-06T20:46:22.490Z,14.85
2023-03-06T20:48:24.975Z,12.82
2023-03-06T20:50:28.173Z,15.75
2023-03-06T20:52:30.943Z,13.25
2023-03-06T20:54:33.621Z,14.32
2023-03-06T20:56:39.971Z,13.50
2023-03-06T20:58:42.961Z,12.70
2023-03-06T21:00:45.559Z,10.55
2023-03-06T21:02:48.563Z,11.75
2023-03-06T21:04:51.144Z,13.50
2023-03-06T21:06:54.834Z,14.43
2023-03-06T21:08:59.223Z,12.35
2023-03-06T21:11:01.620Z,16.75
2023-03-06T21:13:04.166Z,13.18
2023-03-06T21:15:07.298Z,12.60
2023-03-06T21:17:09.751Z,15.88
2023-03-06T21:19:12.936Z,13.98
2023-03-06T21:21:18.793Z,13.18
2023-03-06T21:23:21.248Z,15.13
2023-03-06T21:25:24.011Z,12.90
2023-03-06T21:27:26.620Z,16.00
2023-03-06T21:29:29.013Z,13.73
2023-03-06T21:31:33.760Z,15.65
2023-03-06T21:33:37.020Z,41.03
2023-03-06T21:35:46.308Z,68.25
2023-03-06T21:37:49.114Z,43.65
2023-03-06T21:39:51.868Z,30.40
2023-03-06T21:41:54.196Z,27.77
2023-03-06T21:43:59.220Z,29.92
2023-03-06T21:46:01.978Z,29.60
2023-03-06T21:48:04.909Z,20.85
2023-03-06T21:50:10.390Z,19.73
2023-03-06T21:52:12.998Z,19.92
2023-03-06T21:54:15.861Z,26.85
2023-03-06T21:56:21.355Z,26.70
2023-03-06T21:58:24.091Z,25.63
2023-03-06T22:00:26.621Z,27.33
2023-03-06T22:02:29.888Z,21.70
2023-03-06T22:04:32.461Z,29.55
2023-03-06T22:06:35.680Z,26.17
2023-03-06T22:08:38.209Z,26.17
2023-03-06T22:10:41.486Z,22.15
2023-03-06T22:12:46.161Z,17.80
2023-03-06T22:14:48.867Z,19.08
2023-03-06T22:16:52.117Z,20.88
2023-03-06T22:18:54.746Z,20.20
2023-03-06T22:20:57.376Z,27.25
2023-03-06T22:22:59.793Z,33.35
2023-03-06T22:25:02.406Z,33.13
2023-03-06T22:27:05.158Z,24.67
2023-03-06T22:29:07.684Z,25.92
2023-03-06T22:31:19.205Z,31.25
2023-03-06T22:33:21.549Z,24.15
2023-03-06T22:35:24.407Z,28.60
2023-03-06T22:37:27.163Z,32.88
2023-03-06T22:39:29.558Z,24.88
2023-03-06T22:41:32.367Z,26.38
2023-03-06T22:43:35.664Z,26.65
2023-03-06T22:45:38.382Z,26.67
2023-03-06T22:47:40.894Z,21.55
2023-03-06T22:49:43.266Z,22.50
2023-03-06T22:51:45.724Z,22.58
2023-03-06T22:53:49.410Z,21.48
2023-03-06T22:55:51.729Z,25.20
2023-03-06T22:57:54.733Z,24.73
2023-03-06T22:59:56.952Z,30.15
2023-03-06T23:01:59.546Z,24.08
2023-03-06T23:04:04.080Z,28.45
2023-03-06T23:06:13.140Z,26.92
2023-03-06T23:08:15.481Z,22.17
2023-03-06T23:10:19.622Z,24.92
2023-03-06T23:12:42.145Z,29.48
2023-03-06T23:15:03.404Z,20.88
2023-03-06T23:17:23.997Z,25.50
2023-03-06T23:19:44.976Z,20.88
2023-03-06T23:22:05.851Z,33.08
2023-03-06T23:24:26.802Z,23.95
2023-03-06T23:26:31.243Z,23.73
2023-03-06T23:28:35.253Z,23.80
2023-03-06T23:30:39.583Z,24.70
2023-03-06T23:32:43.772Z,21.15
2023-03-06T23:34:49.074Z,24.08
2023-03-06T23:36:51.958Z,21.77
2023-03-06T23:38:56.352Z,19.17
2023-03-06T23:41:07.471Z,21.55
2023-03-06T23:43:10.283Z,20.83
2023-03-06T23:45:12.768Z,23.15
2023-03-06T23:47:17.534Z,24.70
2023-03-06T23:49:21.890Z,32.17
2023-03-06T23:51:24.476Z,25.90
2023-03-06T23:53:27.062Z,28.75
2023-03-06T23:55:29.632Z,28.95
2023-03-06T23:57:32.113Z,20.58
2023-03-06T23:59:34.261Z,24.23
